Gorinchem, Netherlands
Current Conditions -  °F | °C
As of 11:25 AM on Saturday 22 Nov 2014 (Local Time) from EHGR Reporting Station
Broken Clouds Broken Clouds  
Wind Chill: 50°   Ceiling: 17000
Heat Index: 50°   Visibility: 6mi
Dew Point: 45°   Wind: 9mph
Humidity: 82%   Direction: 170°S
Pressure: 30.03"   Gusts: NA
Location:  51.84°N, 4.97°E
Report Text: EHGR 221025Z AUTO 17008KT 9999 BKN170 10/07 Q1017 BLU
Loading
Personal Weather Stations






























Interactive Weather Map New forecast layout! Learn more

10-Day Weather Forecast

Advertisements
Track Severe Weather on mobile